Alkol, West Virginia
Current Conditions -  °F | °C
As of 7:54 AM on Sunday 21 Dec 2014 (Local Time) from KCRW Reporting Station
Haze Haze  
Wind Chill: -3°   Ceiling: Unl
Heat Index: -3°   Visibility: 5mi
Dew Point: -4°   Wind: 0mph
Humidity: 89%   Direction: NA
Pressure: 30.3"   Gusts: NA
Location:  38.16°N, 81.92°W
Report Text: KCRW 211254Z 00000KT 5SM BR FEW120 M03/M04 A3030 RMK AO2 SLP271 VLY FG I1001 T10281044
Loading
Personal Weather Stations






























Interactive Weather Map New forecast layout! Learn more

10-Day Weather Forecast

Advertisements
Track Severe Weather on mobile